sensor_id;sensor_type;location;lat;lon;timestamp;P1;durP1;ratioP1;P2;durP2;ratioP2
59127;SDS011;44912;52.754;5.994;2022-12-16T00:00:00;61.50;;;41.55;;
59127;SDS011;44912;52.754;5.994;2022-12-16T00:02:27;62.72;;;40.97;;
59127;SDS011;44912;52.754;5.994;2022-12-16T00:04:53;69.18;;;43.80;;
59127;SDS011;44912;52.754;5.994;2022-12-16T00:07:18;66.13;;;41.60;;
59127;SDS011;44912;52.754;5.994;2022-12-16T00:09:44;62.67;;;40.13;;
59127;SDS011;44912;52.754;5.994;2022-12-16T00:12:09;53.50;;;36.55;;
59127;SDS011;44912;52.754;5.994;2022-12-16T00:14:35;51.95;;;34.80;;
59127;SDS011;44912;52.754;5.994;2022-12-16T00:17:00;48.25;;;33.58;;
59127;SDS011;44912;52.754;5.994;2022-12-16T00:19:26;43.83;;;29.95;;
59127;SDS011;44912;52.754;5.994;2022-12-16T00:21:51;43.80;;;28.58;;
59127;SDS011;44912;52.754;5.994;2022-12-16T00:24:17;39.50;;;27.60;;
59127;SDS011;44912;52.754;5.994;2022-12-16T00:26:42;43.10;;;29.73;;
59127;SDS011;44912;52.754;5.994;2022-12-16T00:29:08;39.20;;;27.27;;
59127;SDS011;44912;52.754;5.994;2022-12-16T00:31:35;39.50;;;25.35;;
59127;SDS011;44912;52.754;5.994;2022-12-16T00:34:00;39.72;;;25.98;;
59127;SDS011;44912;52.754;5.994;2022-12-16T00:36:26;36.05;;;24.85;;
59127;SDS011;44912;52.754;5.994;2022-12-16T00:38:51;39.28;;;24.48;;
59127;SDS011;44912;52.754;5.994;2022-12-16T00:41:17;33.80;;;24.33;;
59127;SDS011;44912;52.754;5.994;2022-12-16T00:43:43;34.28;;;24.58;;
59127;SDS011;44912;52.754;5.994;2022-12-16T00:46:08;36.85;;;25.08;;
59127;SDS011;44912;52.754;5.994;2022-12-16T00:48:34;36.30;;;24.60;;
59127;SDS011;44912;52.754;5.994;2022-12-16T00:50:59;32.50;;;23.90;;
59127;SDS011;44912;52.754;5.994;2022-12-16T00:53:25;41.83;;;23.98;;
59127;SDS011;44912;52.754;5.994;2022-12-16T00:56:00;38.50;;;25.17;;
59127;SDS011;44912;52.754;5.994;2022-12-16T00:58:30;36.15;;;23.50;;
59127;SDS011;44912;52.754;5.994;2022-12-16T01:00:56;36.00;;;24.13;;
59127;SDS011;44912;52.754;5.994;2022-12-16T01:03:21;36.03;;;23.13;;
59127;SDS011;44912;52.754;5.994;2022-12-16T01:05:47;34.00;;;23.48;;
59127;SDS011;44912;52.754;5.994;2022-12-16T01:08:13;33.65;;;24.30;;
59127;SDS011;44912;52.754;5.994;2022-12-16T01:10:39;37.95;;;24.70;;
59127;SDS011;44912;52.754;5.994;2022-12-16T01:13:04;33.60;;;23.42;;
59127;SDS011;44912;52.754;5.994;2022-12-16T01:15:30;35.88;;;24.08;;
59127;SDS011;44912;52.754;5.994;2022-12-16T01:17:55;35.03;;;23.83;;
59127;SDS011;44912;52.754;5.994;2022-12-16T01:20:21;31.65;;;23.40;;
59127;SDS011;44912;52.754;5.994;2022-12-16T01:22:46;32.30;;;23.17;;
59127;SDS011;44912;52.754;5.994;2022-12-16T01:25:12;32.13;;;23.23;;
59127;SDS011;44912;52.754;5.994;2022-12-16T01:27:37;35.08;;;23.42;;
59127;SDS011;44912;52.754;5.994;2022-12-16T01:30:03;33.00;;;22.42;;
59127;SDS011;44912;52.754;5.994;2022-12-16T01:32:29;31.65;;;22.52;;
59127;SDS011;44912;52.754;5.994;2022-12-16T01:34:55;33.28;;;22.35;;
59127;SDS011;44912;52.754;5.994;2022-12-16T01:37:21;33.05;;;23.00;;
59127;SDS011;44912;52.754;5.994;2022-12-16T01:39:47;34.17;;;23.85;;
59127;SDS011;44912;52.754;5.994;2022-12-16T01:42:14;32.78;;;23.48;;
59127;SDS011;44912;52.754;5.994;2022-12-16T01:44:44;37.83;;;23.73;;
59127;SDS011;44912;52.754;5.994;2022-12-16T01:47:15;33.38;;;24.38;;
59127;SDS011;44912;52.754;5.994;2022-12-16T01:49:49;31.80;;;23.30;;
59127;SDS011;44912;52.754;5.994;2022-12-16T01:52:31;35.63;;;24.45;;
59127;SDS011;44912;52.754;5.994;2022-12-16T01:55:01;33.80;;;22.90;;
59127;SDS011;44912;52.754;5.994;2022-12-16T01:57:36;31.83;;;22.40;;
59127;SDS011;44912;52.754;5.994;2022-12-16T02:00:06;33.35;;;23.10;;
59127;SDS011;44912;52.754;5.994;2022-12-16T02:02:34;34.03;;;22.90;;
59127;SDS011;44912;52.754;5.994;2022-12-16T02:05:00;30.08;;;22.27;;
59127;SDS011;44912;52.754;5.994;2022-12-16T02:07:50;38.20;;;23.30;;
59127;SDS011;44912;52.754;5.994;2022-12-16T02:10:16;33.13;;;22.17;;
59127;SDS011;44912;52.754;5.994;2022-12-16T02:17:54;33.60;;;23.17;;
59127;SDS011;44912;52.754;5.994;2022-12-16T02:23:29;34.65;;;23.88;;
59127;SDS011;44912;52.754;5.994;2022-12-16T02:31:51;37.63;;;24.48;;
59127;SDS011;44912;52.754;5.994;2022-12-16T02:34:34;33.63;;;23.33;;
59127;SDS011;44912;52.754;5.994;2022-12-16T02:39:46;33.13;;;22.50;;
59127;SDS011;44912;52.754;5.994;2022-12-16T02:42:26;31.45;;;21.27;;
59127;SDS011;44912;52.754;5.994;2022-12-16T02:45:03;31.17;;;21.83;;
59127;SDS011;44912;52.754;5.994;2022-12-16T02:47:37;29.38;;;21.20;;
59127;SDS011;44912;52.754;5.994;2022-12-16T02:50:04;30.00;;;21.25;;
59127;SDS011;44912;52.754;5.994;2022-12-16T02:52:40;35.70;;;22.38;;
59127;SDS011;44912;52.754;5.994;2022-12-16T02:55:06;32.95;;;22.08;;
59127;SDS011;44912;52.754;5.994;2022-12-16T03:00:23;30.27;;;20.73;;
59127;SDS011;44912;52.754;5.994;2022-12-16T03:02:56;25.75;;;19.23;;
59127;SDS011;44912;52.754;5.994;2022-12-16T03:05:33;23.73;;;16.73;;
59127;SDS011;44912;52.754;5.994;2022-12-16T03:08:05;25.67;;;16.05;;
59127;SDS011;44912;52.754;5.994;2022-12-16T03:10:37;25.52;;;16.70;;
59127;SDS011;44912;52.754;5.994;2022-12-16T03:13:06;27.15;;;16.52;;
59127;SDS011;44912;52.754;5.994;2022-12-16T03:15:35;25.40;;;16.08;;
59127;SDS011;44912;52.754;5.994;2022-12-16T03:18:03;23.35;;;15.23;;
59127;SDS011;44912;52.754;5.994;2022-12-16T03:20:40;23.05;;;16.08;;
59127;SDS011;44912;52.754;5.994;2022-12-16T03:23:14;21.15;;;14.40;;
59127;SDS011;44912;52.754;5.994;2022-12-16T03:25:44;24.88;;;15.50;;
59127;SDS011;44912;52.754;5.994;2022-12-16T03:31:11;23.63;;;13.70;;
59127;SDS011;44912;52.754;5.994;2022-12-16T03:36:52;22.45;;;13.70;;
59127;SDS011;44912;52.754;5.994;2022-12-16T03:39:23;23.30;;;13.60;;
59127;SDS011;44912;52.754;5.994;2022-12-16T03:41:51;21.58;;;13.13;;
59127;SDS011;44912;52.754;5.994;2022-12-16T03:44:18;22.15;;;13.07;;
59127;SDS011;44912;52.754;5.994;2022-12-16T03:46:47;24.55;;;14.00;;
59127;SDS011;44912;52.754;5.994;2022-12-16T03:49:13;23.70;;;14.93;;
59127;SDS011;44912;52.754;5.994;2022-12-16T03:51:38;24.52;;;13.43;;
59127;SDS011;44912;52.754;5.994;2022-12-16T03:54:04;18.80;;;12.13;;
59127;SDS011;44912;52.754;5.994;2022-12-16T03:56:29;20.20;;;12.68;;
59127;SDS011;44912;52.754;5.994;2022-12-16T03:58:55;22.55;;;12.43;;
59127;SDS011;44912;52.754;5.994;2022-12-16T04:01:20;20.98;;;12.65;;
59127;SDS011;44912;52.754;5.994;2022-12-16T04:03:47;19.25;;;11.55;;
59127;SDS011;44912;52.754;5.994;2022-12-16T04:06:13;20.70;;;11.55;;
59127;SDS011;44912;52.754;5.994;2022-12-16T04:08:42;20.25;;;11.75;;
59127;SDS011;44912;52.754;5.994;2022-12-16T04:11:11;20.15;;;11.75;;
59127;SDS011;44912;52.754;5.994;2022-12-16T04:13:55;20.85;;;12.27;;
59127;SDS011;44912;52.754;5.994;2022-12-16T04:16:39;20.25;;;11.25;;
59127;SDS011;44912;52.754;5.994;2022-12-16T04:19:25;20.08;;;11.35;;
59127;SDS011;44912;52.754;5.994;2022-12-16T04:22:14;18.77;;;11.32;;
59127;SDS011;44912;52.754;5.994;2022-12-16T04:25:10;18.45;;;10.45;;
59127;SDS011;44912;52.754;5.994;2022-12-16T04:27:39;19.00;;;10.32;;
59127;SDS011;44912;52.754;5.994;2022-12-16T04:30:11;18.00;;;10.23;;
59127;SDS011;44912;52.754;5.994;2022-12-16T04:33:03;17.13;;;10.63;;
59127;SDS011;44912;52.754;5.994;2022-12-16T04:35:50;18.08;;;9.32;;
59127;SDS011;44912;52.754;5.994;2022-12-16T04:38:34;17.55;;;10.13;;
59127;SDS011;44912;52.754;5.994;2022-12-16T04:41:18;18.27;;;9.63;;
59127;SDS011;44912;52.754;5.994;2022-12-16T04:44:03;17.83;;;10.25;;
59127;SDS011;44912;52.754;5.994;2022-12-16T04:46:47;17.15;;;10.35;;
59127;SDS011;44912;52.754;5.994;2022-12-16T04:49:31;16.73;;;9.80;;
59127;SDS011;44912;52.754;5.994;2022-12-16T04:55:00;15.68;;;8.85;;
59127;SDS011;44912;52.754;5.994;2022-12-16T04:57:48;17.75;;;9.75;;
59127;SDS011;44912;52.754;5.994;2022-12-16T05:00:36;15.38;;;9.07;;
59127;SDS011;44912;52.754;5.994;2022-12-16T05:06:05;18.30;;;9.80;;
59127;SDS011;44912;52.754;5.994;2022-12-16T05:08:49;17.50;;;10.05;;
59127;SDS011;44912;52.754;5.994;2022-12-16T05:11:33;18.85;;;9.93;;
59127;SDS011;44912;52.754;5.994;2022-12-16T05:14:17;18.85;;;9.55;;
59127;SDS011;44912;52.754;5.994;2022-12-16T05:17:01;15.82;;;8.68;;
59127;SDS011;44912;52.754;5.994;2022-12-16T05:19:50;17.90;;;9.07;;
59127;SDS011;44912;52.754;5.994;2022-12-16T05:22:34;19.58;;;9.57;;
59127;SDS011;44912;52.754;5.994;2022-12-16T05:25:18;15.68;;;8.18;;
59127;SDS011;44912;52.754;5.994;2022-12-16T05:28:02;16.45;;;8.27;;
59127;SDS011;44912;52.754;5.994;2022-12-16T05:33:31;16.65;;;8.70;;
59127;SDS011;44912;52.754;5.994;2022-12-16T05:36:15;15.48;;;8.20;;
59127;SDS011;44912;52.754;5.994;2022-12-16T05:38:59;15.02;;;7.35;;
59127;SDS011;44912;52.754;5.994;2022-12-16T05:41:44;14.65;;;7.72;;
59127;SDS011;44912;52.754;5.994;2022-12-16T05:44:28;13.82;;;7.88;;
59127;SDS011;44912;52.754;5.994;2022-12-16T05:47:12;15.75;;;7.43;;
59127;SDS011;44912;52.754;5.994;2022-12-16T05:49:56;18.52;;;8.10;;
59127;SDS011;44912;52.754;5.994;2022-12-16T05:52:40;13.35;;;7.05;;
59127;SDS011;44912;52.754;5.994;2022-12-16T05:55:30;17.17;;;8.15;;
59127;SDS011;44912;52.754;5.994;2022-12-16T05:58:14;14.20;;;7.55;;
59127;SDS011;44912;52.754;5.994;2022-12-16T06:00:59;18.00;;;8.20;;
59127;SDS011;44912;52.754;5.994;2022-12-16T06:03:43;16.45;;;7.45;;
59127;SDS011;44912;52.754;5.994;2022-12-16T06:06:27;14.48;;;7.13;;
59127;SDS011;44912;52.754;5.994;2022-12-16T06:09:11;15.70;;;7.22;;
59127;SDS011;44912;52.754;5.994;2022-12-16T06:11:55;12.82;;;7.63;;
59127;SDS011;44912;52.754;5.994;2022-12-16T06:14:39;14.85;;;7.32;;
59127;SDS011;44912;52.754;5.994;2022-12-16T06:17:40;12.27;;;6.97;;
59127;SDS011;44912;52.754;5.994;2022-12-16T06:20:25;12.95;;;6.78;;
59127;SDS011;44912;52.754;5.994;2022-12-16T06:25:54;16.23;;;7.00;;
59127;SDS011;44912;52.754;5.994;2022-12-16T06:28:39;11.75;;;6.90;;
59127;SDS011;44912;52.754;5.994;2022-12-16T06:31:23;13.27;;;6.82;;
59127;SDS011;44912;52.754;5.994;2022-12-16T06:34:07;15.75;;;7.30;;
59127;SDS011;44912;52.754;5.994;2022-12-16T06:36:51;16.40;;;7.35;;
59127;SDS011;44912;52.754;5.994;2022-12-16T06:39:35;13.40;;;6.88;;
59127;SDS011;44912;52.754;5.994;2022-12-16T06:42:19;16.17;;;6.90;;
59127;SDS011;44912;52.754;5.994;2022-12-16T06:45:03;14.57;;;7.15;;
59127;SDS011;44912;52.754;5.994;2022-12-16T06:47:47;13.38;;;7.45;;
59127;SDS011;44912;52.754;5.994;2022-12-16T06:50:32;15.35;;;8.20;;
59127;SDS011;44912;52.754;5.994;2022-12-16T06:53:17;14.57;;;7.00;;
59127;SDS011;44912;52.754;5.994;2022-12-16T06:56:01;14.48;;;8.15;;
59127;SDS011;44912;52.754;5.994;2022-12-16T06:58:45;14.63;;;8.20;;
59127;SDS011;44912;52.754;5.994;2022-12-16T07:01:30;14.40;;;8.18;;
59127;SDS011;44912;52.754;5.994;2022-12-16T07:04:14;16.48;;;8.98;;
59127;SDS011;44912;52.754;5.994;2022-12-16T07:06:57;17.95;;;8.98;;
59127;SDS011;44912;52.754;5.994;2022-12-16T07:09:42;15.85;;;9.45;;
59127;SDS011;44912;52.754;5.994;2022-12-16T07:12:26;18.77;;;9.07;;
59127;SDS011;44912;52.754;5.994;2022-12-16T07:15:10;14.40;;;9.77;;
59127;SDS011;44912;52.754;5.994;2022-12-16T07:17:54;20.60;;;10.38;;
59127;SDS011;44912;52.754;5.994;2022-12-16T07:20:38;19.35;;;10.63;;
59127;SDS011;44912;52.754;5.994;2022-12-16T07:23:23;18.35;;;10.75;;
59127;SDS011;44912;52.754;5.994;2022-12-16T07:26:07;17.73;;;10.70;;
59127;SDS011;44912;52.754;5.994;2022-12-16T07:28:51;19.25;;;12.27;;
59127;SDS011;44912;52.754;5.994;2022-12-16T07:31:35;22.90;;;14.73;;
59127;SDS011;44912;52.754;5.994;2022-12-16T07:34:19;24.77;;;15.68;;
59127;SDS011;44912;52.754;5.994;2022-12-16T07:37:03;24.50;;;15.15;;
59127;SDS011;44912;52.754;5.994;2022-12-16T07:39:47;24.13;;;15.63;;
59127;SDS011;44912;52.754;5.994;2022-12-16T07:42:31;26.75;;;16.10;;
59127;SDS011;44912;52.754;5.994;2022-12-16T07:45:15;23.52;;;15.60;;
59127;SDS011;44912;52.754;5.994;2022-12-16T07:47:59;23.98;;;16.30;;
59127;SDS011;44912;52.754;5.994;2022-12-16T07:50:43;23.65;;;15.27;;
59127;SDS011;44912;52.754;5.994;2022-12-16T07:53:27;23.98;;;15.88;;
59127;SDS011;44912;52.754;5.994;2022-12-16T07:56:11;20.80;;;14.93;;
59127;SDS011;44912;52.754;5.994;2022-12-16T07:58:56;24.77;;;16.77;;
59127;SDS011;44912;52.754;5.994;2022-12-16T08:01:40;24.50;;;17.00;;
59127;SDS011;44912;52.754;5.994;2022-12-16T08:04:24;27.38;;;17.52;;
59127;SDS011;44912;52.754;5.994;2022-12-16T08:07:08;27.15;;;18.23;;
59127;SDS011;44912;52.754;5.994;2022-12-16T08:09:52;28.05;;;19.23;;
59127;SDS011;44912;52.754;5.994;2022-12-16T08:12:36;25.63;;;19.15;;
59127;SDS011;44912;52.754;5.994;2022-12-16T08:15:20;26.70;;;19.48;;
59127;SDS011;44912;52.754;5.994;2022-12-16T08:18:05;34.42;;;20.42;;
59127;SDS011;44912;52.754;5.994;2022-12-16T08:20:49;31.13;;;21.73;;
59127;SDS011;44912;52.754;5.994;2022-12-16T08:23:33;29.80;;;21.08;;
59127;SDS011;44912;52.754;5.994;2022-12-16T08:26:17;29.95;;;21.15;;
59127;SDS011;44912;52.754;5.994;2022-12-16T08:29:01;33.63;;;22.13;;
59127;SDS011;44912;52.754;5.994;2022-12-16T08:31:45;34.65;;;24.08;;
59127;SDS011;44912;52.754;5.994;2022-12-16T08:34:29;34.08;;;23.60;;
59127;SDS011;44912;52.754;5.994;2022-12-16T08:37:13;37.40;;;24.70;;
59127;SDS011;44912;52.754;5.994;2022-12-16T08:39:57;34.30;;;24.23;;
59127;SDS011;44912;52.754;5.994;2022-12-16T08:42:42;41.53;;;27.42;;
59127;SDS011;44912;52.754;5.994;2022-12-16T08:45:31;37.95;;;26.90;;
59127;SDS011;44912;52.754;5.994;2022-12-16T08:48:15;41.47;;;28.90;;
59127;SDS011;44912;52.754;5.994;2022-12-16T08:51:03;43.00;;;29.50;;
59127;SDS011;44912;52.754;5.994;2022-12-16T08:53:48;45.00;;;29.80;;
59127;SDS011;44912;52.754;5.994;2022-12-16T08:56:32;41.15;;;29.63;;
59127;SDS011;44912;52.754;5.994;2022-12-16T08:59:16;46.80;;;31.80;;
59127;SDS011;44912;52.754;5.994;2022-12-16T09:02:00;45.28;;;31.70;;
59127;SDS011;44912;52.754;5.994;2022-12-16T09:04:44;45.42;;;32.25;;
59127;SDS011;44912;52.754;5.994;2022-12-16T09:07:28;50.25;;;33.65;;
59127;SDS011;44912;52.754;5.994;2022-12-16T09:10:12;48.50;;;33.25;;
59127;SDS011;44912;52.754;5.994;2022-12-16T09:13:09;49.83;;;32.75;;
59127;SDS011;44912;52.754;5.994;2022-12-16T09:15:55;50.78;;;34.20;;
59127;SDS011;44912;52.754;5.994;2022-12-16T09:18:39;48.50;;;34.53;;
59127;SDS011;44912;52.754;5.994;2022-12-16T09:21:23;53.40;;;34.05;;
59127;SDS011;44912;52.754;5.994;2022-12-16T09:24:07;50.95;;;33.95;;
59127;SDS011;44912;52.754;5.994;2022-12-16T09:26:51;52.25;;;34.38;;
59127;SDS011;44912;52.754;5.994;2022-12-16T09:29:36;51.78;;;35.90;;
59127;SDS011;44912;52.754;5.994;2022-12-16T09:32:22;49.67;;;33.80;;
59127;SDS011;44912;52.754;5.994;2022-12-16T09:37:50;51.75;;;34.95;;
59127;SDS011;44912;52.754;5.994;2022-12-16T09:40:36;53.33;;;35.50;;
59127;SDS011;44912;52.754;5.994;2022-12-16T09:43:35;52.90;;;35.15;;
59127;SDS011;44912;52.754;5.994;2022-12-16T09:52:23;52.67;;;34.83;;
59127;SDS011;44912;52.754;5.994;2022-12-16T09:55:16;51.47;;;34.70;;
59127;SDS011;44912;52.754;5.994;2022-12-16T09:58:09;54.55;;;35.78;;
59127;SDS011;44912;52.754;5.994;2022-12-16T10:00:54;55.90;;;35.58;;
59127;SDS011;44912;52.754;5.994;2022-12-16T10:03:38;53.47;;;34.92;;
59127;SDS011;44912;52.754;5.994;2022-12-16T10:09:28;52.08;;;33.40;;
59127;SDS011;44912;52.754;5.994;2022-12-16T10:12:42;53.85;;;35.03;;
59127;SDS011;44912;52.754;5.994;2022-12-16T10:15:38;52.33;;;35.60;;
59127;SDS011;44912;52.754;5.994;2022-12-16T10:22:03;54.35;;;35.10;;
59127;SDS011;44912;52.754;5.994;2022-12-16T10:24:55;55.10;;;35.67;;
59127;SDS011;44912;52.754;5.994;2022-12-16T10:27:56;53.05;;;35.10;;
59127;SDS011;44912;52.754;5.994;2022-12-16T10:30:48;52.67;;;34.33;;
59127;SDS011;44912;52.754;5.994;2022-12-16T10:33:33;55.13;;;35.28;;
59127;SDS011;44912;52.754;5.994;2022-12-16T10:39:05;56.88;;;35.00;;
59127;SDS011;44912;52.754;5.994;2022-12-16T10:42:13;60.22;;;36.58;;
59127;SDS011;44912;52.754;5.994;2022-12-16T10:45:02;53.25;;;35.38;;
59127;SDS011;44912;52.754;5.994;2022-12-16T10:47:48;57.20;;;35.55;;
59127;SDS011;44912;52.754;5.994;2022-12-16T10:50:32;56.45;;;35.65;;
59127;SDS011;44912;52.754;5.994;2022-12-16T10:53:17;53.47;;;34.30;;
59127;SDS011;44912;52.754;5.994;2022-12-16T10:59:23;54.55;;;34.08;;
59127;SDS011;44912;52.754;5.994;2022-12-16T11:02:19;58.72;;;36.00;;
59127;SDS011;44912;52.754;5.994;2022-12-16T11:08:28;55.97;;;34.75;;
59127;SDS011;44912;52.754;5.994;2022-12-16T11:11:18;57.15;;;35.65;;
59127;SDS011;44912;52.754;5.994;2022-12-16T11:14:14;57.38;;;36.90;;
59127;SDS011;44912;52.754;5.994;2022-12-16T11:17:21;58.72;;;35.67;;
59127;SDS011;44912;52.754;5.994;2022-12-16T11:20:14;56.63;;;34.95;;
59127;SDS011;44912;52.754;5.994;2022-12-16T11:23:19;52.58;;;34.28;;
59127;SDS011;44912;52.754;5.994;2022-12-16T11:26:07;51.83;;;34.22;;
59127;SDS011;44912;52.754;5.994;2022-12-16T11:32:00;54.20;;;35.30;;
59127;SDS011;44912;52.754;5.994;2022-12-16T11:34:45;55.35;;;36.47;;
59127;SDS011;44912;52.754;5.994;2022-12-16T11:37:34;58.65;;;36.55;;
59127;SDS011;44912;52.754;5.994;2022-12-16T11:40:20;59.30;;;35.45;;
59127;SDS011;44912;52.754;5.994;2022-12-16T11:43:05;56.33;;;34.22;;
59127;SDS011;44912;52.754;5.994;2022-12-16T11:45:56;59.38;;;35.42;;
59127;SDS011;44912;52.754;5.994;2022-12-16T11:48:55;60.47;;;36.83;;
59127;SDS011;44912;52.754;5.994;2022-12-16T11:51:54;64.75;;;38.10;;
59127;SDS011;44912;52.754;5.994;2022-12-16T11:54:53;59.35;;;36.10;;
59127;SDS011;44912;52.754;5.994;2022-12-16T11:58:17;58.85;;;35.03;;
59127;SDS011;44912;52.754;5.994;2022-12-16T12:01:23;58.47;;;36.35;;
59127;SDS011;44912;52.754;5.994;2022-12-16T12:04:13;55.33;;;34.90;;
59127;SDS011;44912;52.754;5.994;2022-12-16T12:09:53;58.47;;;35.40;;
59127;SDS011;44912;52.754;5.994;2022-12-16T12:13:00;60.20;;;36.97;;
59127;SDS011;44912;52.754;5.994;2022-12-16T12:16:08;62.38;;;35.78;;
59127;SDS011;44912;52.754;5.994;2022-12-16T12:19:07;64.93;;;36.00;;
59127;SDS011;44912;52.754;5.994;2022-12-16T12:25:22;58.05;;;35.88;;
59127;SDS011;44912;52.754;5.994;2022-12-16T12:28:55;59.45;;;35.53;;
59127;SDS011;44912;52.754;5.994;2022-12-16T12:37:08;67.60;;;38.55;;
59127;SDS011;44912;52.754;5.994;2022-12-16T12:42:54;68.07;;;40.67;;
59127;SDS011;44912;52.754;5.994;2022-12-16T13:00:50;63.63;;;36.45;;
59127;SDS011;44912;52.754;5.994;2022-12-16T13:03:41;66.43;;;38.72;;
59127;SDS011;44912;52.754;5.994;2022-12-16T13:06:32;66.20;;;38.13;;
59127;SDS011;44912;52.754;5.994;2022-12-16T13:09:27;65.38;;;37.92;;
59127;SDS011;44912;52.754;5.994;2022-12-16T13:15:06;66.32;;;37.60;;
59127;SDS011;44912;52.754;5.994;2022-12-16T13:20:46;68.70;;;36.65;;
59127;SDS011;44912;52.754;5.994;2022-12-16T13:23:35;64.05;;;35.70;;
59127;SDS011;44912;52.754;5.994;2022-12-16T13:26:21;63.03;;;36.17;;
59127;SDS011;44912;52.754;5.994;2022-12-16T13:41:05;65.30;;;35.58;;
59127;SDS011;44912;52.754;5.994;2022-12-16T13:44:08;67.88;;;37.45;;
59127;SDS011;44912;52.754;5.994;2022-12-16T13:46:54;64.55;;;37.05;;
59127;SDS011;44912;52.754;5.994;2022-12-16T13:55:31;65.80;;;37.15;;
59127;SDS011;44912;52.754;5.994;2022-12-16T13:58:28;64.88;;;36.17;;
59127;SDS011;44912;52.754;5.994;2022-12-16T14:07:20;65.53;;;35.22;;
59127;SDS011;44912;52.754;5.994;2022-12-16T14:10:08;70.80;;;38.85;;
59127;SDS011;44912;52.754;5.994;2022-12-16T14:16:09;64.70;;;36.92;;
59127;SDS011;44912;52.754;5.994;2022-12-16T14:19:11;61.92;;;35.95;;
59127;SDS011;44912;52.754;5.994;2022-12-16T14:25:24;63.83;;;35.55;;
59127;SDS011;44912;52.754;5.994;2022-12-16T14:31:23;61.15;;;35.38;;
59127;SDS011;44912;52.754;5.994;2022-12-16T14:34:18;65.82;;;36.92;;
59127;SDS011;44912;52.754;5.994;2022-12-16T14:40:03;65.28;;;36.90;;
59127;SDS011;44912;52.754;5.994;2022-12-16T14:43:00;66.80;;;36.58;;
59127;SDS011;44912;52.754;5.994;2022-12-16T14:45:47;62.15;;;35.42;;
59127;SDS011;44912;52.754;5.994;2022-12-16T14:57:01;63.17;;;35.08;;
59127;SDS011;44912;52.754;5.994;2022-12-16T15:02:32;62.72;;;35.83;;
59127;SDS011;44912;52.754;5.994;2022-12-16T15:05:27;61.97;;;35.65;;
59127;SDS011;44912;52.754;5.994;2022-12-16T15:08:15;69.57;;;36.28;;
59127;SDS011;44912;52.754;5.994;2022-12-16T15:10:59;70.90;;;37.45;;
59127;SDS011;44912;52.754;5.994;2022-12-16T15:13:44;73.15;;;37.38;;
59127;SDS011;44912;52.754;5.994;2022-12-16T15:16:33;71.28;;;37.80;;
59127;SDS011;44912;52.754;5.994;2022-12-16T15:19:20;70.78;;;36.60;;
59127;SDS011;44912;52.754;5.994;2022-12-16T15:22:10;69.40;;;35.65;;
59127;SDS011;44912;52.754;5.994;2022-12-16T15:24:57;71.13;;;37.05;;
59127;SDS011;44912;52.754;5.994;2022-12-16T15:27:41;73.75;;;37.90;;
59127;SDS011;44912;52.754;5.994;2022-12-16T15:30:32;71.60;;;34.20;;
59127;SDS011;44912;52.754;5.994;2022-12-16T15:33:29;69.05;;;35.80;;
59127;SDS011;44912;52.754;5.994;2022-12-16T15:36:18;66.78;;;35.45;;
59127;SDS011;44912;52.754;5.994;2022-12-16T15:39:22;71.93;;;37.13;;
59127;SDS011;44912;52.754;5.994;2022-12-16T15:42:23;71.35;;;36.58;;
59127;SDS011;44912;52.754;5.994;2022-12-16T15:48:18;69.50;;;37.00;;
59127;SDS011;44912;52.754;5.994;2022-12-16T15:51:29;68.28;;;34.58;;
59127;SDS011;44912;52.754;5.994;2022-12-16T15:54:27;62.90;;;35.03;;
59127;SDS011;44912;52.754;5.994;2022-12-16T15:57:25;69.93;;;34.78;;
59127;SDS011;44912;52.754;5.994;2022-12-16T16:00:22;66.90;;;34.25;;
59127;SDS011;44912;52.754;5.994;2022-12-16T16:06:01;71.25;;;36.53;;
59127;SDS011;44912;52.754;5.994;2022-12-16T16:08:48;63.53;;;32.28;;
59127;SDS011;44912;52.754;5.994;2022-12-16T16:11:33;70.65;;;35.35;;
59127;SDS011;44912;52.754;5.994;2022-12-16T16:14:34;63.30;;;34.17;;
59127;SDS011;44912;52.754;5.994;2022-12-16T16:17:20;71.75;;;36.53;;
59127;SDS011;44912;52.754;5.994;2022-12-16T16:20:05;63.90;;;34.13;;
59127;SDS011;44912;52.754;5.994;2022-12-16T16:22:55;67.15;;;33.33;;
59127;SDS011;44912;52.754;5.994;2022-12-16T16:25:40;64.80;;;31.67;;
59127;SDS011;44912;52.754;5.994;2022-12-16T16:28:24;65.53;;;32.92;;
59127;SDS011;44912;52.754;5.994;2022-12-16T16:31:09;70.20;;;33.85;;
59127;SDS011;44912;52.754;5.994;2022-12-16T16:33:53;72.15;;;34.97;;
59127;SDS011;44912;52.754;5.994;2022-12-16T16:36:57;68.50;;;33.58;;
59127;SDS011;44912;52.754;5.994;2022-12-16T16:42:26;71.45;;;34.83;;
59127;SDS011;44912;52.754;5.994;2022-12-16T16:45:11;71.30;;;37.00;;
59127;SDS011;44912;52.754;5.994;2022-12-16T16:50:46;70.40;;;35.20;;
59127;SDS011;44912;52.754;5.994;2022-12-16T16:53:30;67.72;;;33.95;;
59127;SDS011;44912;52.754;5.994;2022-12-16T16:56:14;63.45;;;31.40;;
59127;SDS011;44912;52.754;5.994;2022-12-16T16:58:59;67.28;;;32.22;;
59127;SDS011;44912;52.754;5.994;2022-12-16T17:01:43;61.55;;;30.23;;
59127;SDS011;44912;52.754;5.994;2022-12-16T17:04:27;67.40;;;32.83;;
59127;SDS011;44912;52.754;5.994;2022-12-16T17:07:11;67.30;;;32.70;;
59127;SDS011;44912;52.754;5.994;2022-12-16T17:09:55;66.97;;;32.55;;
59127;SDS011;44912;52.754;5.994;2022-12-16T17:12:39;67.07;;;34.03;;
59127;SDS011;44912;52.754;5.994;2022-12-16T17:18:12;67.50;;;30.83;;
59127;SDS011;44912;52.754;5.994;2022-12-16T17:20:56;64.72;;;31.83;;
59127;SDS011;44912;52.754;5.994;2022-12-16T17:23:40;86.35;;;35.30;;
59127;SDS011;44912;52.754;5.994;2022-12-16T17:26:24;69.70;;;32.47;;
59127;SDS011;44912;52.754;5.994;2022-12-16T17:32:00;66.25;;;31.13;;
59127;SDS011;44912;52.754;5.994;2022-12-16T17:34:44;70.82;;;31.73;;
59127;SDS011;44912;52.754;5.994;2022-12-16T17:37:28;70.53;;;32.40;;
59127;SDS011;44912;52.754;5.994;2022-12-16T17:40:12;67.38;;;33.30;;
59127;SDS011;44912;52.754;5.994;2022-12-16T17:42:56;66.07;;;31.33;;
59127;SDS011;44912;52.754;5.994;2022-12-16T17:45:41;62.65;;;31.70;;
59127;SDS011;44912;52.754;5.994;2022-12-16T17:48:24;70.65;;;32.95;;
59127;SDS011;44912;52.754;5.994;2022-12-16T17:51:09;68.05;;;32.83;;
59127;SDS011;44912;52.754;5.994;2022-12-16T17:53:53;62.58;;;31.52;;
59127;SDS011;44912;52.754;5.994;2022-12-16T17:56:37;66.15;;;31.25;;
59127;SDS011;44912;52.754;5.994;2022-12-16T17:59:21;63.53;;;31.75;;
59127;SDS011;44912;52.754;5.994;2022-12-16T18:02:05;62.80;;;30.48;;
59127;SDS011;44912;52.754;5.994;2022-12-16T18:04:51;68.22;;;32.78;;
59127;SDS011;44912;52.754;5.994;2022-12-16T18:07:35;62.55;;;29.63;;
59127;SDS011;44912;52.754;5.994;2022-12-16T18:10:19;64.45;;;31.17;;
59127;SDS011;44912;52.754;5.994;2022-12-16T18:13:04;59.40;;;29.90;;
59127;SDS011;44912;52.754;5.994;2022-12-16T18:15:51;58.63;;;30.90;;
59127;SDS011;44912;52.754;5.994;2022-12-16T18:18:35;61.28;;;30.02;;
59127;SDS011;44912;52.754;5.994;2022-12-16T18:21:19;61.08;;;29.63;;
59127;SDS011;44912;52.754;5.994;2022-12-16T18:24:06;61.45;;;30.15;;
59127;SDS011;44912;52.754;5.994;2022-12-16T18:26:51;60.33;;;28.02;;
59127;SDS011;44912;52.754;5.994;2022-12-16T18:29:39;53.97;;;26.67;;
59127;SDS011;44912;52.754;5.994;2022-12-16T18:32:23;55.50;;;25.75;;
59127;SDS011;44912;52.754;5.994;2022-12-16T18:35:07;54.55;;;25.25;;
59127;SDS011;44912;52.754;5.994;2022-12-16T18:37:51;55.55;;;25.67;;